createdAt,value
2022-08-19T00:00:41.902Z,39.60
2022-08-19T00:01:41.897Z,36.70
2022-08-19T00:02:50.021Z,37.30
2022-08-19T00:03:42.883Z,39.50
2022-08-19T00:04:41.904Z,37.20
2022-08-19T00:05:41.866Z,39.30
2022-08-19T00:06:41.861Z,41.10
2022-08-19T00:07:41.874Z,40.80
2022-08-19T00:08:42.881Z,41.00
2022-08-19T00:09:41.832Z,40.20
2022-08-19T00:10:41.826Z,39.30
2022-08-19T00:11:41.817Z,39.30
2022-08-19T00:12:46.800Z,40.20
2022-08-19T00:13:42.798Z,39.80
2022-08-19T00:14:41.794Z,40.70
2022-08-19T00:15:41.787Z,37.90
2022-08-19T00:16:41.781Z,44.80
2022-08-19T00:17:42.049Z,38.20
2022-08-19T00:18:41.772Z,40.20
2022-08-19T00:19:41.757Z,40.30
2022-08-19T00:20:41.753Z,40.50
2022-08-19T00:21:41.738Z,38.90
2022-08-19T00:22:41.765Z,40.90
2022-08-19T00:23:41.723Z,39.80
2022-08-19T00:24:41.716Z,38.90
2022-08-19T00:25:42.707Z,39.20
2022-08-19T00:26:42.697Z,38.00
2022-08-19T00:27:41.717Z,42.10
2022-08-19T00:28:41.684Z,43.10
2022-08-19T00:29:41.690Z,42.30
2022-08-19T00:30:41.667Z,40.50
2022-08-19T00:31:41.659Z,38.50
2022-08-19T00:32:41.653Z,37.50
2022-08-19T00:33:41.672Z,39.40
2022-08-19T00:34:41.635Z,37.80
2022-08-19T00:35:41.630Z,41.40
2022-08-19T00:36:41.620Z,40.40
2022-08-19T00:37:41.612Z,45.90
2022-08-19T00:38:41.634Z,46.60
2022-08-19T00:39:41.661Z,45.00
2022-08-19T00:40:41.591Z,52.70
2022-08-19T00:41:41.587Z,44.10
2022-08-19T00:42:41.579Z,43.10
2022-08-19T00:43:41.601Z,42.10
2022-08-19T00:44:41.568Z,39.80
2022-08-19T00:45:41.556Z,42.40
2022-08-19T00:46:41.552Z,41.90
2022-08-19T00:47:41.546Z,44.70
2022-08-19T00:48:41.564Z,45.30
2022-08-19T00:49:41.531Z,46.80
2022-08-19T00:50:51.620Z,42.60
2022-08-19T00:51:42.511Z,44.80
2022-08-19T00:52:41.507Z,41.80
2022-08-19T00:53:41.526Z,40.50
2022-08-19T00:54:41.492Z,41.30
2022-08-19T00:55:41.484Z,38.90
2022-08-19T00:56:41.693Z,34.50
2022-08-19T00:57:41.472Z,36.20
2022-08-19T00:58:41.493Z,34.10
2022-08-19T00:59:56.168Z,37.70
2022-08-19T01:00:42.446Z,34.80
2022-08-19T01:01:41.573Z,41.20
2022-08-19T01:02:41.435Z,36.30
2022-08-19T01:03:57.002Z,37.00
2022-08-19T01:04:42.409Z,37.50
2022-08-19T01:05:41.407Z,33.90
2022-08-19T01:06:41.403Z,38.80
2022-08-19T01:07:41.392Z,43.20
2022-08-19T01:08:41.411Z,42.90
2022-08-19T01:09:41.378Z,41.90
2022-08-19T01:10:41.373Z,42.00
2022-08-19T01:11:41.370Z,44.00
2022-08-19T01:12:41.360Z,40.70
2022-08-19T01:13:49.190Z,39.20
2022-08-19T01:14:42.339Z,38.10
2022-08-19T01:15:41.328Z,34.20
2022-08-19T01:16:41.326Z,36.00
2022-08-19T01:17:41.318Z,38.40
2022-08-19T01:18:41.339Z,37.70
2022-08-19T01:19:43.512Z,33.90
2022-08-19T01:20:41.295Z,37.50
2022-08-19T01:21:41.286Z,39.90
2022-08-19T01:22:41.281Z,37.70
2022-08-19T01:23:41.294Z,42.80
2022-08-19T01:24:42.242Z,39.50
2022-08-19T01:25:42.256Z,38.50
2022-08-19T01:26:41.246Z,40.80
2022-08-19T01:27:43.206Z,37.20
2022-08-19T01:28:42.308Z,39.60
2022-08-19T01:29:41.224Z,42.10
2022-08-19T01:30:44.213Z,44.20
2022-08-19T01:31:41.210Z,41.50
2022-08-19T01:32:41.200Z,39.30
2022-08-19T01:33:42.222Z,42.20
2022-08-19T01:34:41.188Z,44.30
2022-08-19T01:35:41.176Z,39.90
2022-08-19T01:36:41.170Z,41.30
2022-08-19T01:37:41.161Z,43.20
2022-08-19T01:38:44.002Z,38.90
2022-08-19T01:39:41.189Z,38.30
2022-08-19T01:40:41.144Z,40.80
2022-08-19T01:41:41.129Z,40.10
2022-08-19T01:42:41.124Z,37.80
2022-08-19T01:44:13.720Z,42.20
2022-08-19T01:44:42.108Z,37.90
2022-08-19T01:45:41.097Z,40.70
2022-08-19T01:46:41.087Z,41.30
2022-08-19T01:47:41.085Z,45.20
2022-08-19T01:48:41.074Z,43.70
2022-08-19T01:49:41.101Z,45.50
2022-08-19T01:50:41.061Z,43.70
2022-08-19T01:51:41.045Z,41.80
2022-08-19T01:52:41.048Z,42.80
2022-08-19T01:53:41.064Z,37.90
2022-08-19T01:54:41.058Z,42.70
2022-08-19T01:55:41.571Z,39.50
2022-08-19T01:56:41.015Z,38.60
2022-08-19T01:57:41.019Z,40.70
2022-08-19T01:58:40.995Z,40.60
2022-08-19T01:59:41.015Z,39.80
2022-08-19T02:00:40.984Z,42.20
2022-08-19T02:01:41.033Z,41.40
2022-08-19T02:02:40.953Z,41.80
2022-08-19T02:03:41.959Z,40.80
2022-08-19T02:04:40.982Z,39.70
2022-08-19T02:05:40.941Z,41.70
2022-08-19T02:06:40.935Z,40.40
2022-08-19T02:07:41.332Z,45.90
2022-08-19T02:08:40.920Z,39.30
2022-08-19T02:09:40.935Z,43.20
2022-08-19T02:10:40.903Z,45.10
2022-08-19T02:11:40.889Z,40.70
2022-08-19T02:12:40.887Z,43.50
2022-08-19T02:13:40.879Z,42.70
2022-08-19T02:14:40.901Z,44.00
2022-08-19T02:15:40.866Z,42.20
2022-08-19T02:16:40.854Z,40.60
2022-08-19T02:17:40.850Z,44.50
2022-08-19T02:18:40.843Z,38.80
2022-08-19T02:19:40.964Z,40.10
2022-08-19T02:20:40.830Z,40.50
2022-08-19T02:21:40.813Z,39.90
2022-08-19T02:22:40.807Z,41.20
2022-08-19T02:23:40.799Z,45.10
2022-08-19T02:24:40.820Z,43.80
2022-08-19T02:25:40.785Z,42.60
2022-08-19T02:26:40.776Z,47.40
2022-08-19T02:27:40.768Z,44.30
2022-08-19T02:28:40.764Z,39.20
2022-08-19T02:29:40.782Z,42.90
2022-08-19T02:30:40.746Z,39.40
2022-08-19T02:31:40.731Z,41.20
2022-08-19T02:32:44.504Z,38.70
2022-08-19T02:33:40.729Z,43.50
2022-08-19T02:34:40.719Z,41.80
2022-08-19T02:35:40.734Z,45.40
2022-08-19T02:36:42.437Z,44.00
2022-08-19T02:37:40.690Z,43.80
2022-08-19T02:38:40.687Z,39.80
2022-08-19T02:39:40.717Z,40.70
2022-08-19T02:40:40.692Z,40.60
2022-08-19T02:41:40.656Z,40.40
2022-08-19T02:42:40.652Z,42.50
2022-08-19T02:43:40.638Z,40.30
2022-08-19T02:44:41.629Z,39.50
2022-08-19T02:45:41.638Z,38.90
2022-08-19T02:46:40.614Z,41.30
2022-08-19T02:47:40.607Z,39.90
2022-08-19T02:48:40.604Z,37.50
2022-08-19T02:49:40.595Z,39.20
2022-08-19T02:50:40.605Z,40.80
2022-08-19T02:51:41.574Z,35.90
2022-08-19T02:52:40.573Z,40.30
2022-08-19T02:53:40.562Z,39.20
2022-08-19T02:54:40.558Z,39.20
2022-08-19T02:55:46.091Z,43.80
2022-08-19T02:56:41.545Z,41.90
2022-08-19T02:57:40.532Z,43.70
2022-08-19T02:58:40.524Z,41.20
2022-08-19T02:59:40.513Z,47.90
2022-08-19T03:00:40.538Z,41.90
2022-08-19T03:01:40.584Z,39.40
2022-08-19T03:02:40.494Z,41.40
2022-08-19T03:03:40.486Z,43.20
2022-08-19T03:04:40.476Z,39.60
2022-08-19T03:05:47.938Z,42.00
2022-08-19T03:06:41.464Z,43.30
2022-08-19T03:07:40.456Z,46.70
2022-08-19T03:08:40.450Z,39.60
2022-08-19T03:09:40.444Z,40.60
2022-08-19T03:10:40.458Z,41.20
2022-08-19T03:11:40.421Z,42.00
2022-08-19T03:12:40.417Z,48.10
2022-08-19T03:13:40.404Z,47.00
2022-08-19T03:14:40.399Z,48.30
2022-08-19T03:15:40.416Z,45.80
2022-08-19T03:16:40.385Z,46.90
2022-08-19T03:17:40.378Z,43.10
2022-08-19T03:18:40.372Z,51.70
2022-08-19T03:19:40.371Z,51.00
2022-08-19T03:20:40.373Z,50.60
2022-08-19T03:21:40.343Z,45.40
2022-08-19T03:22:40.339Z,48.30
2022-08-19T03:23:40.331Z,42.10
2022-08-19T03:24:40.320Z,43.10
2022-08-19T03:25:40.338Z,40.80
2022-08-19T03:26:40.306Z,42.00
2022-08-19T03:27:40.296Z,41.90
2022-08-19T03:28:40.294Z,39.50
2022-08-19T03:29:43.865Z,41.60
2022-08-19T03:30:40.298Z,43.30
2022-08-19T03:31:45.664Z,45.30
2022-08-19T03:32:45.327Z,39.90
2022-08-19T03:33:40.249Z,42.70
2022-08-19T03:34:40.246Z,40.40
2022-08-19T03:35:40.266Z,39.80
2022-08-19T03:36:40.235Z,42.10
2022-08-19T03:37:40.225Z,42.60
2022-08-19T03:38:40.213Z,37.70
2022-08-19T03:39:40.238Z,40.40
2022-08-19T03:40:40.227Z,41.70
2022-08-19T03:41:45.361Z,41.00
2022-08-19T03:42:49.368Z,41.60
2022-08-19T03:43:42.171Z,42.90
2022-08-19T03:44:40.165Z,42.40
2022-08-19T03:45:40.181Z,40.80
2022-08-19T03:46:40.153Z,38.70
2022-08-19T03:47:40.142Z,39.80
2022-08-19T03:48:40.135Z,40.20
2022-08-19T03:49:40.126Z,39.20
2022-08-19T03:50:40.139Z,35.00
2022-08-19T03:51:40.114Z,34.90
2022-08-19T03:52:40.102Z,34.40
2022-08-19T03:53:41.093Z,32.60
2022-08-19T03:54:40.090Z,32.70
2022-08-19T03:55:40.110Z,31.50
2022-08-19T03:56:40.072Z,39.20
2022-08-19T03:57:40.072Z,37.70
2022-08-19T03:58:40.060Z,37.70
2022-08-19T03:59:40.048Z,42.50
2022-08-19T04:00:40.066Z,43.10
2022-08-19T04:01:40.070Z,37.10
2022-08-19T04:02:40.026Z,37.40
2022-08-19T04:03:40.016Z,37.50
2022-08-19T04:04:40.010Z,35.80
2022-08-19T04:05:40.021Z,35.60
2022-08-19T04:06:40.106Z,35.30
2022-08-19T04:07:39.983Z,37.20
2022-08-19T04:08:39.978Z,39.00
2022-08-19T04:09:39.969Z,38.50
2022-08-19T04:10:39.986Z,39.60
2022-08-19T04:11:43.165Z,38.80
2022-08-19T04:12:39.945Z,42.60
2022-08-19T04:13:39.935Z,37.50
2022-08-19T04:14:39.938Z,37.90
2022-08-19T04:15:39.942Z,41.50
2022-08-19T04:16:39.916Z,37.70
2022-08-19T04:17:39.902Z,39.60
2022-08-19T04:18:39.888Z,38.50
2022-08-19T04:19:40.888Z,38.00
2022-08-19T04:20:39.910Z,29.00
2022-08-19T04:21:39.878Z,33.20
2022-08-19T04:22:39.865Z,35.00
2022-08-19T04:23:43.065Z,36.00
2022-08-19T04:24:40.849Z,36.00
2022-08-19T04:25:39.866Z,33.00
2022-08-19T04:26:39.836Z,34.60
2022-08-19T04:27:39.827Z,35.80
2022-08-19T04:28:39.821Z,33.60
2022-08-19T04:29:39.811Z,34.40
2022-08-19T04:30:39.827Z,32.70
2022-08-19T04:31:39.801Z,34.90
2022-08-19T04:32:39.789Z,33.10
2022-08-19T04:33:39.790Z,36.00
2022-08-19T04:35:02.752Z,35.00
2022-08-19T04:35:40.792Z,35.00
2022-08-19T04:36:39.754Z,36.00
2022-08-19T04:37:39.746Z,32.90
2022-08-19T04:38:39.744Z,35.10
2022-08-19T04:39:39.768Z,32.50
2022-08-19T04:40:39.754Z,34.20
2022-08-19T04:41:39.724Z,33.70
2022-08-19T04:42:39.713Z,35.60
2022-08-19T04:43:39.701Z,33.50
2022-08-19T04:44:45.980Z,35.90
2022-08-19T04:45:43.947Z,33.40
2022-08-19T04:46:50.873Z,33.90
2022-08-19T04:47:47.616Z,34.60
2022-08-19T04:48:44.164Z,32.60
2022-08-19T04:49:40.655Z,33.70
2022-08-19T04:50:39.674Z,38.00
2022-08-19T04:51:39.635Z,38.20
2022-08-19T04:52:39.629Z,40.90
2022-08-19T04:53:39.623Z,37.20
2022-08-19T04:54:40.082Z,34.40
2022-08-19T04:55:39.632Z,33.90
2022-08-19T04:56:39.598Z,34.00
2022-08-19T04:57:39.592Z,32.80
2022-08-19T04:58:39.582Z,32.90
2022-08-19T04:59:39.591Z,34.20
2022-08-19T05:00:39.648Z,37.10
2022-08-19T05:01:39.559Z,29.50
2022-08-19T05:02:39.550Z,33.10
2022-08-19T05:03:40.538Z,32.90
2022-08-19T05:04:39.553Z,31.30
2022-08-19T05:05:44.447Z,34.90
2022-08-19T05:06:40.521Z,30.90
2022-08-19T05:07:39.516Z,32.10
2022-08-19T05:08:39.504Z,33.20
2022-08-19T05:09:58.491Z,30.30
2022-08-19T05:10:40.548Z,31.90
2022-08-19T05:11:39.476Z,32.10
2022-08-19T05:12:39.471Z,30.40
2022-08-19T05:13:39.465Z,32.00
2022-08-19T05:14:39.456Z,30.70
2022-08-19T05:15:39.474Z,32.50
2022-08-19T05:16:39.445Z,31.60
2022-08-19T05:17:39.476Z,31.80
2022-08-19T05:18:39.426Z,30.40
2022-08-19T05:19:39.415Z,30.40
2022-08-19T05:20:39.438Z,31.60
2022-08-19T05:21:39.410Z,30.20
2022-08-19T05:22:39.396Z,31.10
2022-08-19T05:23:39.386Z,29.70
2022-08-19T05:24:56.362Z,30.30
2022-08-19T05:25:41.398Z,32.00
2022-08-19T05:26:39.368Z,28.30
2022-08-19T05:27:39.354Z,27.90
2022-08-19T05:28:39.350Z,30.60
2022-08-19T05:29:39.344Z,28.50
2022-08-19T05:30:47.343Z,29.70
2022-08-19T05:31:41.743Z,31.00
2022-08-19T05:32:39.314Z,30.70
2022-08-19T05:33:39.314Z,28.10
2022-08-19T05:34:39.311Z,30.30
2022-08-19T05:35:39.324Z,29.60
2022-08-19T05:36:39.285Z,27.80
2022-08-19T05:37:39.280Z,29.30
2022-08-19T05:38:39.271Z,25.40
2022-08-19T05:39:39.359Z,29.10
2022-08-19T05:40:39.285Z,23.30
2022-08-19T05:41:39.255Z,17.00
2022-08-19T05:42:39.245Z,18.00
2022-08-19T05:43:39.234Z,22.40
2022-08-19T05:44:39.231Z,25.00
2022-08-19T05:45:39.247Z,24.70
2022-08-19T05:46:39.210Z,25.30
2022-08-19T05:47:42.197Z,27.20
2022-08-19T05:48:39.200Z,22.70
2022-08-19T05:49:39.182Z,25.20
2022-08-19T05:50:39.208Z,24.20
2022-08-19T05:51:39.173Z,23.30
2022-08-19T05:52:39.196Z,24.20
2022-08-19T05:53:39.155Z,19.90
2022-08-19T05:54:39.142Z,20.80
2022-08-19T05:55:40.174Z,17.10
2022-08-19T05:56:39.139Z,19.40
2022-08-19T05:57:39.130Z,16.10
2022-08-19T05:58:39.142Z,16.50
2022-08-19T05:59:39.272Z,15.30
2022-08-19T06:00:39.139Z,15.30
2022-08-19T06:01:39.095Z,17.80
2022-08-19T06:02:39.108Z,16.40
2022-08-19T06:03:39.079Z,15.60
2022-08-19T06:04:39.072Z,15.30
2022-08-19T06:05:39.184Z,14.80
2022-08-19T06:06:41.082Z,15.40
2022-08-19T06:07:39.065Z,15.20
2022-08-19T06:08:39.043Z,11.50
2022-08-19T06:09:39.035Z,15.40
2022-08-19T06:10:39.032Z,12.40
2022-08-19T06:11:39.059Z,13.40
2022-08-19T06:12:39.012Z,11.10
2022-08-19T06:13:39.011Z,11.50
2022-08-19T06:14:41.859Z,9.50
2022-08-19T06:15:38.993Z,10.30
2022-08-19T06:16:39.011Z,9.90
2022-08-19T06:17:38.974Z,8.70
2022-08-19T06:18:38.971Z,11.00
2022-08-19T06:19:40.532Z,10.20
2022-08-19T06:20:54.922Z,9.20
2022-08-19T06:21:40.969Z,9.00
2022-08-19T06:22:38.929Z,12.20
2022-08-19T06:23:38.926Z,9.10
2022-08-19T06:24:38.925Z,7.30
2022-08-19T06:25:38.912Z,12.00
2022-08-19T06:26:38.963Z,10.00
2022-08-19T06:27:48.281Z,7.00
2022-08-19T06:28:40.887Z,9.70
2022-08-19T06:29:38.882Z,9.50
2022-08-19T06:30:38.989Z,8.30
2022-08-19T06:31:38.894Z,8.50
2022-08-19T06:32:42.712Z,12.40
2022-08-19T06:33:39.848Z,10.50
2022-08-19T06:34:38.841Z,11.40
2022-08-19T06:35:38.880Z,8.60
2022-08-19T06:36:38.866Z,10.50
2022-08-19T06:37:42.034Z,8.70
2022-08-19T06:38:39.813Z,8.60
2022-08-19T06:39:38.842Z,8.70
2022-08-19T06:40:38.817Z,8.70
2022-08-19T06:41:43.610Z,7.50
2022-08-19T06:42:44.809Z,7.60
2022-08-19T06:43:42.128Z,9.40
2022-08-19T06:44:42.756Z,8.60
2022-08-19T06:45:39.559Z,8.30
2022-08-19T06:46:38.775Z,8.60
2022-08-19T06:47:38.736Z,7.40
2022-08-19T06:48:45.331Z,7.60
2022-08-19T06:49:40.724Z,9.50
2022-08-19T06:50:39.624Z,7.00
2022-08-19T06:51:42.626Z,8.30
2022-08-19T06:52:38.701Z,6.50
2022-08-19T06:53:38.702Z,7.00
2022-08-19T06:54:55.688Z,9.20
2022-08-19T06:55:39.709Z,6.50
2022-08-19T06:56:38.660Z,6.80
2022-08-19T06:57:39.663Z,5.80
2022-08-19T06:58:38.654Z,7.00
2022-08-19T06:59:38.645Z,7.50
2022-08-19T07:00:38.637Z,6.30
2022-08-19T07:01:38.654Z,10.00
2022-08-19T07:02:38.624Z,6.30
2022-08-19T07:03:39.728Z,5.60
2022-08-19T07:04:38.611Z,6.40
2022-08-19T07:05:38.600Z,5.60
2022-08-19T07:06:43.572Z,4.60
2022-08-19T07:07:40.584Z,8.40
2022-08-19T07:09:38.585Z,6.30
2022-08-19T07:10:38.564Z,6.50
2022-08-19T07:11:38.578Z,7.10
2022-08-19T07:12:38.551Z,4.60
2022-08-19T07:13:38.543Z,5.40
2022-08-19T07:14:38.528Z,6.70
2022-08-19T07:15:38.551Z,6.70
2022-08-19T07:16:42.515Z,5.20
2022-08-19T07:17:39.507Z,5.00
2022-08-19T07:18:38.500Z,6.50
2022-08-19T07:19:38.495Z,7.50
2022-08-19T07:20:38.510Z,5.90
2022-08-19T07:21:38.478Z,6.00
2022-08-19T07:22:38.481Z,6.50
2022-08-19T07:24:38.457Z,6.90
2022-08-19T07:25:38.475Z,6.70
2022-08-19T07:26:38.444Z,6.70
2022-08-19T07:27:39.797Z,4.90
2022-08-19T07:28:38.432Z,5.10
2022-08-19T07:29:39.419Z,5.20
2022-08-19T07:30:38.439Z,5.80
2022-08-19T07:31:38.431Z,8.30
2022-08-19T07:32:38.394Z,6.60
2022-08-19T07:33:38.387Z,5.80
2022-08-19T07:34:38.381Z,5.40
2022-08-19T07:35:38.399Z,6.10
2022-08-19T07:36:38.371Z,5.80
2022-08-19T07:37:38.365Z,6.50
2022-08-19T07:38:38.353Z,4.20
2022-08-19T07:39:38.430Z,4.60
2022-08-19T07:40:38.382Z,5.70
2022-08-19T07:41:38.326Z,5.80
2022-08-19T07:42:38.323Z,5.70
2022-08-19T07:43:38.313Z,4.20
2022-08-19T07:45:38.321Z,4.50
2022-08-19T07:46:38.289Z,4.10
2022-08-19T07:47:47.989Z,5.70
2022-08-19T07:48:39.275Z,6.50
2022-08-19T07:49:38.268Z,4.20
2022-08-19T07:50:38.284Z,5.50
2022-08-19T07:51:38.254Z,5.90
2022-08-19T07:52:38.243Z,3.30
2022-08-19T07:53:39.879Z,4.50
2022-08-19T07:54:39.230Z,5.40
2022-08-19T07:55:41.817Z,7.80
2022-08-19T07:56:39.213Z,5.10
2022-08-19T07:57:38.250Z,5.20
2022-08-19T07:58:38.197Z,5.40
2022-08-19T07:59:38.214Z,5.30
2022-08-19T08:00:38.207Z,3.60
2022-08-19T08:01:41.775Z,4.30
2022-08-19T08:02:38.168Z,6.30
2022-08-19T08:03:38.163Z,4.50
2022-08-19T08:04:38.151Z,3.80
2022-08-19T08:05:41.774Z,3.60
2022-08-19T08:06:40.137Z,5.40
2022-08-19T08:07:38.131Z,5.10
2022-08-19T08:08:43.843Z,4.30
2022-08-19T08:09:39.334Z,3.70
2022-08-19T08:10:38.143Z,4.10
2022-08-19T08:11:38.099Z,5.10
2022-08-19T08:12:38.093Z,4.60
2022-08-19T08:13:39.085Z,3.30
2022-08-19T08:14:38.078Z,4.60
2022-08-19T08:15:43.080Z,4.40
2022-08-19T08:16:39.694Z,5.60
2022-08-19T08:17:49.612Z,4.80
2022-08-19T08:18:39.049Z,4.90
2022-08-19T08:19:38.043Z,3.70
2022-08-19T08:20:38.058Z,3.60
2022-08-19T08:21:38.052Z,5.20
2022-08-19T08:22:38.017Z,4.50
2022-08-19T08:23:39.810Z,4.60
2022-08-19T08:24:37.997Z,3.70
2022-08-19T08:25:38.014Z,5.00
2022-08-19T08:26:37.984Z,3.80
2022-08-19T08:27:38.974Z,5.90
2022-08-19T08:28:37.967Z,3.30
2022-08-19T08:29:37.964Z,6.20
2022-08-19T08:30:37.977Z,5.20
2022-08-19T08:31:37.948Z,5.30
2022-08-19T08:32:37.937Z,4.00
2022-08-19T08:33:37.929Z,5.30
2022-08-19T08:34:37.923Z,3.50
2022-08-19T08:35:37.935Z,5.40
2022-08-19T08:36:37.909Z,3.20
2022-08-19T08:37:37.899Z,4.60
2022-08-19T08:38:40.117Z,4.10
2022-08-19T08:39:38.967Z,4.30
2022-08-19T08:40:37.899Z,5.30
2022-08-19T08:41:37.867Z,4.10
2022-08-19T08:42:37.856Z,12.30
2022-08-19T08:43:37.854Z,5.80
2022-08-19T08:44:37.857Z,4.40
2022-08-19T08:45:40.898Z,3.70
2022-08-19T08:46:37.832Z,4.20
2022-08-19T08:47:38.096Z,5.70
2022-08-19T08:48:37.837Z,6.50
2022-08-19T08:49:37.810Z,3.80
2022-08-19T08:50:37.811Z,6.00
2022-08-19T08:51:37.857Z,4.10
2022-08-19T08:52:37.784Z,4.20
2022-08-19T08:53:41.467Z,6.00
2022-08-19T08:54:38.772Z,6.50
2022-08-19T08:55:37.789Z,4.80
2022-08-19T08:56:37.753Z,3.70
2022-08-19T08:57:40.960Z,4.10
2022-08-19T08:58:37.737Z,5.20
2022-08-19T08:59:37.738Z,4.80
2022-08-19T09:00:37.720Z,5.20
2022-08-19T09:01:37.757Z,5.40
2022-08-19T09:02:37.697Z,6.30
2022-08-19T09:03:37.689Z,6.60
2022-08-19T09:04:37.715Z,4.00
2022-08-19T09:05:41.504Z,6.80
2022-08-19T09:06:40.792Z,5.30
2022-08-19T09:07:38.856Z,3.50
2022-08-19T09:08:38.654Z,3.70
2022-08-19T09:09:37.656Z,5.70
2022-08-19T09:10:44.809Z,4.80
2022-08-19T09:11:42.431Z,3.50
2022-08-19T09:12:38.621Z,4.70
2022-08-19T09:13:37.876Z,4.00
2022-08-19T09:14:50.247Z,4.50
2022-08-19T09:15:39.619Z,6.20
2022-08-19T09:16:37.620Z,4.20
2022-08-19T09:17:37.585Z,5.80
2022-08-19T09:18:37.594Z,4.00
2022-08-19T09:19:37.571Z,4.20
2022-08-19T09:20:37.561Z,5.30
2022-08-19T09:21:38.575Z,6.70
2022-08-19T09:22:37.543Z,5.70
2022-08-19T09:23:37.542Z,4.30
2022-08-19T09:24:37.527Z,4.10
2022-08-19T09:25:37.535Z,4.20
2022-08-19T09:26:52.318Z,3.60
2022-08-19T09:27:53.914Z,4.30
2022-08-19T09:28:38.498Z,4.00
2022-08-19T09:29:37.491Z,4.90
2022-08-19T09:30:37.483Z,5.00
2022-08-19T09:31:37.503Z,4.70
2022-08-19T09:32:37.468Z,4.60
2022-08-19T09:33:37.468Z,5.70
2022-08-19T09:34:37.957Z,4.30
2022-08-19T09:35:50.149Z,4.80
2022-08-19T09:36:38.475Z,3.20
2022-08-19T09:37:37.430Z,4.40
2022-08-19T09:38:37.426Z,3.90
2022-08-19T09:39:38.444Z,4.50
2022-08-19T09:40:38.547Z,6.00
2022-08-19T09:41:38.426Z,4.10
2022-08-19T09:42:37.399Z,4.50
2022-08-19T09:43:44.409Z,3.40
2022-08-19T09:44:38.378Z,5.70
2022-08-19T09:45:37.369Z,3.20
2022-08-19T09:46:37.390Z,2.80
2022-08-19T09:47:37.348Z,3.50
2022-08-19T09:48:37.338Z,2.70
2022-08-19T09:49:37.336Z,2.40
2022-08-19T09:50:37.325Z,2.40
2022-08-19T09:51:37.475Z,3.00
2022-08-19T09:52:37.311Z,3.30
2022-08-19T09:53:37.378Z,4.20
2022-08-19T09:54:37.308Z,2.80
2022-08-19T09:55:37.303Z,5.00
2022-08-19T09:56:37.316Z,4.20
2022-08-19T09:57:37.278Z,3.80
2022-08-19T09:58:37.274Z,4.20
2022-08-19T09:59:37.274Z,4.00
2022-08-19T10:00:37.255Z,3.40
2022-08-19T10:01:37.353Z,3.70
2022-08-19T10:02:37.241Z,6.80
2022-08-19T10:03:37.243Z,3.00
2022-08-19T10:04:37.223Z,4.10
2022-08-19T10:05:37.217Z,3.50
2022-08-19T10:06:45.662Z,4.00
2022-08-19T10:07:38.197Z,2.30
2022-08-19T10:08:37.191Z,3.80
2022-08-19T10:09:37.182Z,2.90
2022-08-19T10:10:37.177Z,6.20
2022-08-19T10:11:40.628Z,3.40
2022-08-19T10:12:38.161Z,2.90
2022-08-19T10:13:38.153Z,3.50
2022-08-19T10:14:37.144Z,4.50
2022-08-19T10:15:47.179Z,3.50
2022-08-19T10:16:39.768Z,4.40
2022-08-19T10:17:37.120Z,3.50
2022-08-19T10:18:37.115Z,3.80
2022-08-19T10:19:37.108Z,3.00
2022-08-19T10:20:37.095Z,3.50
2022-08-19T10:21:37.086Z,3.30
2022-08-19T10:22:37.099Z,3.80
2022-08-19T10:23:37.071Z,3.60
2022-08-19T10:24:37.090Z,3.70
2022-08-19T10:25:38.434Z,3.90
2022-08-19T10:26:37.058Z,2.20
2022-08-19T10:27:37.077Z,2.30
2022-08-19T10:28:37.038Z,4.60
2022-08-19T10:29:37.029Z,3.70
2022-08-19T10:30:38.055Z,3.80
2022-08-19T10:32:01.139Z,2.20
2022-08-19T10:32:38.032Z,2.80
2022-08-19T10:33:40.954Z,3.30
2022-08-19T10:34:37.987Z,2.90
2022-08-19T10:35:56.258Z,3.00
2022-08-19T10:36:37.990Z,4.40
2022-08-19T10:37:37.992Z,3.70
2022-08-19T10:38:37.959Z,5.70
2022-08-19T10:39:43.429Z,13.00
2022-08-19T10:40:37.945Z,2.90
2022-08-19T10:41:36.944Z,5.60
2022-08-19T10:42:36.963Z,6.50
2022-08-19T10:43:36.952Z,8.00
2022-08-19T10:44:36.915Z,14.30
2022-08-19T10:45:36.933Z,3.00
2022-08-19T10:46:37.903Z,4.20
2022-08-19T10:47:36.925Z,3.60
2022-08-19T10:48:36.889Z,3.90
2022-08-19T10:49:36.881Z,8.70
2022-08-19T10:50:36.871Z,3.60
2022-08-19T10:51:36.865Z,7.20
2022-08-19T10:52:38.815Z,8.00
2022-08-19T10:53:36.853Z,4.90
2022-08-19T10:54:36.840Z,3.50
2022-08-19T10:55:36.861Z,6.70
2022-08-19T10:56:36.832Z,5.10
2022-08-19T10:58:03.302Z,4.10
2022-08-19T10:58:38.816Z,2.10
2022-08-19T10:59:36.806Z,2.20
2022-08-19T11:00:36.803Z,5.70
2022-08-19T11:01:36.843Z,2.30
2022-08-19T11:02:36.809Z,3.30
2022-08-19T11:03:36.778Z,3.20
2022-08-19T11:04:36.769Z,2.40
2022-08-19T11:05:39.936Z,3.00
2022-08-19T11:06:36.751Z,2.20
2022-08-19T11:07:36.781Z,2.10
2022-08-19T11:08:36.737Z,5.00
2022-08-19T11:09:36.735Z,3.40
2022-08-19T11:10:36.725Z,3.20
2022-08-19T11:11:38.457Z,4.30
2022-08-19T11:12:36.731Z,6.10
2022-08-19T11:13:36.694Z,4.30
2022-08-19T11:14:36.690Z,3.70
2022-08-19T11:15:36.679Z,2.30
2022-08-19T11:16:36.671Z,3.00
2022-08-19T11:17:36.665Z,2.40
2022-08-19T11:18:36.718Z,4.20
2022-08-19T11:19:36.650Z,2.90
2022-08-19T11:20:36.648Z,2.80
2022-08-19T11:21:36.635Z,3.90
2022-08-19T11:22:40.628Z,3.80
2022-08-19T11:23:37.646Z,2.30
2022-08-19T11:24:36.607Z,3.30
2022-08-19T11:25:36.594Z,5.80
2022-08-19T11:26:37.596Z,3.20
2022-08-19T11:27:36.604Z,2.30
2022-08-19T11:28:36.602Z,3.60
2022-08-19T11:29:36.574Z,4.40
2022-08-19T11:30:36.566Z,3.40
2022-08-19T11:31:36.557Z,4.40
2022-08-19T11:32:36.549Z,4.60
2022-08-19T11:33:36.571Z,3.70
2022-08-19T11:34:36.545Z,6.00
2022-08-19T11:35:36.524Z,3.70
2022-08-19T11:36:36.519Z,4.60
2022-08-19T11:37:36.515Z,3.10
2022-08-19T11:38:36.534Z,3.70
2022-08-19T11:39:36.579Z,3.60
2022-08-19T11:40:36.494Z,6.40
2022-08-19T11:41:36.475Z,4.20
2022-08-19T11:42:36.498Z,4.30
2022-08-19T11:43:37.641Z,4.60
2022-08-19T11:44:37.455Z,3.80
2022-08-19T11:45:36.445Z,4.00
2022-08-19T11:46:36.442Z,3.20
2022-08-19T11:47:36.454Z,5.20
2022-08-19T11:48:36.427Z,2.90
2022-08-19T11:49:36.416Z,5.50
2022-08-19T11:50:36.408Z,2.80
2022-08-19T11:51:36.416Z,7.10
2022-08-19T11:52:36.428Z,3.50
2022-08-19T11:53:36.391Z,4.70
2022-08-19T11:54:36.380Z,2.90
2022-08-19T11:55:36.371Z,2.60
2022-08-19T11:56:37.360Z,2.50
2022-08-19T11:57:36.381Z,3.50
2022-08-19T11:58:36.364Z,3.30
2022-08-19T11:59:36.343Z,3.10
2022-08-19T12:00:36.334Z,5.30
2022-08-19T12:01:36.325Z,1.80
2022-08-19T12:02:36.350Z,3.80
2022-08-19T12:03:37.336Z,6.00
2022-08-19T12:04:36.318Z,2.60
2022-08-19T12:05:36.303Z,6.70
2022-08-19T12:06:36.294Z,4.00
2022-08-19T12:07:36.309Z,3.20
2022-08-19T12:08:36.277Z,4.00
2022-08-19T12:09:36.278Z,5.10
2022-08-19T12:10:36.288Z,4.40
2022-08-19T12:11:36.248Z,3.90
2022-08-19T12:12:36.272Z,2.90
2022-08-19T12:13:36.236Z,3.40
2022-08-19T12:14:36.257Z,5.90
2022-08-19T12:15:36.877Z,2.60
2022-08-19T12:16:37.770Z,4.40
2022-08-19T12:17:37.231Z,4.30
2022-08-19T12:18:36.195Z,3.60
2022-08-19T12:19:36.189Z,2.90
2022-08-19T12:20:36.478Z,4.00
2022-08-19T12:21:36.188Z,4.90
2022-08-19T12:22:36.204Z,4.80
2022-08-19T12:23:36.157Z,3.30
2022-08-19T12:24:36.154Z,3.50
2022-08-19T12:25:36.147Z,3.10
2022-08-19T12:26:53.113Z,2.80
2022-08-19T12:27:40.716Z,3.70
2022-08-19T12:28:36.120Z,2.40
2022-08-19T12:29:36.121Z,3.80
2022-08-19T12:30:36.110Z,1.60
2022-08-19T12:31:36.102Z,1.60
2022-08-19T12:32:36.140Z,2.40
2022-08-19T12:33:36.095Z,1.70
2022-08-19T12:34:36.076Z,3.70
2022-08-19T12:35:36.089Z,2.00
2022-08-19T12:36:36.067Z,2.00
2022-08-19T12:37:36.082Z,1.50
2022-08-19T12:38:36.062Z,1.50
2022-08-19T12:39:36.097Z,2.80
2022-08-19T12:40:36.039Z,1.80
2022-08-19T12:41:36.028Z,3.70
2022-08-19T12:42:37.044Z,2.20
2022-08-19T12:43:36.020Z,3.00
2022-08-19T12:44:36.006Z,1.90
2022-08-19T12:45:36.008Z,1.80
2022-08-19T12:46:35.987Z,2.50
2022-08-19T12:47:37.198Z,3.90
2022-08-19T12:48:35.979Z,2.10
2022-08-19T12:49:53.407Z,3.30
2022-08-19T12:50:36.958Z,2.20
2022-08-19T12:51:35.963Z,1.80
2022-08-19T12:52:35.972Z,3.10
2022-08-19T12:53:39.057Z,3.20
2022-08-19T12:54:35.929Z,2.70
2022-08-19T12:55:35.921Z,2.50
2022-08-19T12:56:35.918Z,2.00
2022-08-19T12:57:35.933Z,2.80
2022-08-19T12:58:35.892Z,2.90
2022-08-19T12:59:36.888Z,2.20
2022-08-19T13:00:35.921Z,2.50
2022-08-19T13:01:35.875Z,1.70
2022-08-19T13:02:38.664Z,1.90
2022-08-19T13:03:40.355Z,3.40
2022-08-19T13:04:36.850Z,1.70
2022-08-19T13:05:35.870Z,1.70
2022-08-19T13:06:35.861Z,3.50
2022-08-19T13:07:35.864Z,1.60
2022-08-19T13:08:35.824Z,2.80